createdAt,value
2023-01-19T13:18:08.480Z,82.84
2023-01-19T13:19:08.374Z,82.84
2023-01-19T13:20:08.370Z,82.59
2023-01-19T13:21:08.362Z,82.73
2023-01-19T13:22:08.344Z,82.73
2023-01-19T13:23:08.336Z,82.39
2023-01-19T13:24:08.355Z,82.90
2023-01-19T13:25:08.318Z,82.70
2023-01-19T13:26:08.303Z,82.80
2023-01-19T13:27:08.307Z,82.07
2023-01-19T13:28:08.310Z,81.87
2023-01-19T13:29:08.282Z,82.14
2023-01-19T13:30:08.261Z,81.72
2023-01-19T13:31:08.380Z,81.62
2023-01-19T13:32:08.248Z,81.14
2023-01-19T13:33:08.243Z,81.30
2023-01-19T13:34:08.257Z,81.66
2023-01-19T13:35:08.234Z,81.87
2023-01-19T13:36:08.197Z,81.70
2023-01-19T13:37:08.199Z,82.11
2023-01-19T13:38:08.176Z,82.01
2023-01-19T13:39:08.199Z,82.11
2023-01-19T13:40:08.168Z,83.04
2023-01-19T13:41:08.164Z,82.94
2023-01-19T13:42:08.144Z,82.84
2023-01-19T13:43:08.130Z,83.04
2023-01-19T13:44:08.113Z,82.73
2023-01-19T13:45:08.121Z,82.73
2023-01-19T13:46:08.122Z,82.53
2023-01-19T13:47:08.090Z,82.73
2023-01-19T13:48:08.074Z,82.84
2023-01-19T13:49:08.056Z,82.53
2023-01-19T13:50:08.111Z,82.73
2023-01-19T13:51:08.050Z,82.73
2023-01-19T13:52:08.040Z,82.63
2023-01-19T13:53:08.039Z,82.84
2023-01-19T13:54:08.021Z,82.84
2023-01-19T13:55:08.284Z,82.80
2023-01-19T13:56:07.999Z,82.53
2023-01-19T13:57:07.980Z,82.53
2023-01-19T13:58:07.962Z,83.36
2023-01-19T13:59:07.974Z,82.84
2023-01-19T14:00:07.995Z,82.53
2023-01-19T14:01:07.966Z,83.04
2023-01-19T14:02:08.025Z,83.18
2023-01-19T14:03:08.010Z,83.39
2023-01-19T14:04:07.937Z,82.98
2023-01-19T14:05:07.896Z,83.18
2023-01-19T14:06:07.979Z,83.18
2023-01-19T14:07:07.884Z,83.29
2023-01-19T14:08:07.871Z,82.98
2023-01-19T14:09:07.872Z,82.98
2023-01-19T14:10:08.297Z,83.18
2023-01-19T14:11:07.849Z,83.08
2023-01-19T14:12:07.848Z,83.29
2023-01-19T14:13:07.835Z,82.98
2023-01-19T14:14:07.798Z,83.08
2023-01-19T14:15:08.142Z,83.29
2023-01-19T14:16:07.875Z,83.81
2023-01-19T14:17:07.783Z,83.43
2023-01-19T14:18:07.759Z,83.39
2023-01-19T14:19:07.759Z,83.39
2023-01-19T14:20:07.871Z,83.60
2023-01-19T14:21:07.886Z,83.33
2023-01-19T14:22:07.785Z,83.33
2023-01-19T14:23:07.711Z,83.74
2023-01-19T14:24:07.699Z,83.95
2023-01-19T14:25:07.957Z,83.53
2023-01-19T14:26:07.672Z,83.81
2023-01-19T14:27:07.689Z,83.95
2023-01-19T14:28:07.644Z,84.27
2023-01-19T14:29:07.633Z,84.47
2023-01-19T14:30:07.626Z,83.91
2023-01-19T14:31:07.644Z,84.27
2023-01-19T14:32:07.613Z,83.84
2023-01-19T14:33:07.607Z,84.27
2023-01-19T14:34:07.581Z,83.95
2023-01-19T14:35:08.045Z,83.95
2023-01-19T14:36:07.564Z,83.95
2023-01-19T14:37:07.563Z,84.47
2023-01-19T14:38:07.568Z,84.47
2023-01-19T14:39:07.536Z,84.27
2023-01-19T14:40:07.540Z,84.78
2023-01-19T14:41:07.513Z,84.78
2023-01-19T14:42:07.498Z,84.27
2023-01-19T14:43:07.488Z,84.78
2023-01-19T14:44:07.490Z,84.78
2023-01-19T14:45:07.754Z,84.47
2023-01-19T14:46:07.534Z,84.47
2023-01-19T14:47:07.466Z,84.89
2023-01-19T14:48:07.435Z,85.10
2023-01-19T14:49:07.441Z,85.10
2023-01-19T14:50:07.425Z,84.78
2023-01-19T14:51:07.435Z,85.55
2023-01-19T14:52:07.393Z,85.10
2023-01-19T14:53:07.378Z,85.20
2023-01-19T14:54:07.407Z,85.30
2023-01-19T14:55:07.699Z,85.24
2023-01-19T14:56:07.396Z,85.20
2023-01-19T14:57:07.376Z,85.34
2023-01-19T14:58:07.349Z,84.92
2023-01-19T14:59:07.317Z,85.44
2023-01-19T15:00:17.366Z,85.55
2023-01-19T15:01:07.497Z,85.55
2023-01-19T15:02:07.351Z,85.55
2023-01-19T15:03:07.280Z,85.51
2023-01-19T15:04:07.266Z,85.65
2023-01-19T15:05:07.665Z,85.75
2023-01-19T15:06:07.249Z,85.55
2023-01-19T15:07:07.236Z,85.75
2023-01-19T15:08:07.230Z,85.65
2023-01-19T15:09:07.217Z,85.75
2023-01-19T15:10:07.337Z,85.24
2023-01-19T15:11:07.226Z,85.41
2023-01-19T15:12:07.198Z,85.34
2023-01-19T15:13:07.186Z,85.24
2023-01-19T15:14:07.169Z,85.65
2023-01-19T15:15:07.455Z,85.24
2023-01-19T15:16:07.146Z,85.34
2023-01-19T15:17:07.137Z,85.24
2023-01-19T15:18:07.153Z,85.75
2023-01-19T15:19:07.111Z,85.86
2023-01-19T15:20:07.150Z,85.75
2023-01-19T15:21:07.101Z,85.55
2023-01-19T15:22:07.092Z,85.65
2023-01-19T15:23:07.070Z,85.75
2023-01-19T15:24:07.091Z,86.07
2023-01-19T15:25:07.394Z,85.96
2023-01-19T15:26:07.090Z,85.86
2023-01-19T15:27:07.036Z,86.11
2023-01-19T15:28:07.031Z,85.96
2023-01-19T15:29:07.004Z,85.44
2023-01-19T15:30:06.995Z,85.86
2023-01-19T15:31:07.050Z,86.38
2023-01-19T15:32:06.996Z,86.17
2023-01-19T15:33:06.974Z,86.21
2023-01-19T15:34:06.949Z,86.32
2023-01-19T15:35:07.367Z,86.11
2023-01-19T15:36:06.952Z,86.42
2023-01-19T15:37:06.947Z,86.27
2023-01-19T15:38:06.931Z,86.21
2023-01-19T15:39:06.907Z,86.17
2023-01-19T15:40:06.898Z,86.32
2023-01-19T15:41:06.887Z,86.17
2023-01-19T15:42:06.884Z,86.38
2023-01-19T15:43:06.867Z,86.27
2023-01-19T15:44:06.864Z,86.52
2023-01-19T15:45:07.424Z,86.69
2023-01-19T15:46:06.875Z,86.42
2023-01-19T15:47:06.821Z,86.69
2023-01-19T15:48:06.811Z,86.52
2023-01-19T15:49:06.796Z,86.27
2023-01-19T15:50:06.784Z,86.94
2023-01-19T15:51:06.797Z,86.69
2023-01-19T15:52:06.781Z,86.83
2023-01-19T15:53:06.766Z,87.11
2023-01-19T15:54:06.742Z,86.73
2023-01-19T15:55:07.117Z,86.63
2023-01-19T15:56:06.722Z,86.63
2023-01-19T15:57:06.731Z,86.73
2023-01-19T15:58:06.727Z,86.94
2023-01-19T15:59:06.723Z,86.73
2023-01-19T16:00:06.697Z,86.63
2023-01-19T16:01:06.806Z,87.15
2023-01-19T16:02:06.860Z,87.04
2023-01-19T16:03:06.642Z,87.98
2023-01-19T16:04:06.658Z,88.09
2023-01-19T16:05:06.686Z,88.09
2023-01-19T16:06:06.610Z,88.09
2023-01-19T16:07:06.630Z,87.88
2023-01-19T16:08:06.607Z,88.64
2023-01-19T16:09:06.580Z,88.40
2023-01-19T16:10:06.627Z,88.64
2023-01-19T16:11:06.567Z,88.40
2023-01-19T16:12:06.565Z,88.60
2023-01-19T16:13:06.571Z,88.50
2023-01-19T16:14:06.562Z,88.29
2023-01-19T16:15:06.529Z,88.29
2023-01-19T16:16:06.560Z,88.33
2023-01-19T16:17:06.511Z,88.23
2023-01-19T16:18:06.527Z,88.33
2023-01-19T16:19:06.500Z,88.23
2023-01-19T16:20:06.471Z,87.98
2023-01-19T16:21:06.478Z,88.43
2023-01-19T16:22:06.449Z,88.54
2023-01-19T16:23:15.207Z,88.19
2023-01-19T16:24:07.443Z,88.23
2023-01-19T16:25:06.438Z,88.43
2023-01-19T16:26:06.405Z,88.71
2023-01-19T16:27:06.427Z,88.12
2023-01-19T16:28:06.396Z,88.33
2023-01-19T16:29:06.389Z,88.40
2023-01-19T16:30:06.401Z,88.43
2023-01-19T16:31:06.378Z,88.19
2023-01-19T16:32:06.345Z,88.64
2023-01-19T16:33:06.340Z,88.75
2023-01-19T16:34:06.325Z,88.54
2023-01-19T16:35:06.345Z,88.75
2023-01-19T16:36:06.314Z,88.33
2023-01-19T16:37:06.315Z,88.40
2023-01-19T16:38:06.297Z,88.23
2023-01-19T16:39:06.285Z,88.40
2023-01-19T16:40:06.260Z,88.43
2023-01-19T16:41:06.248Z,87.98
2023-01-19T16:42:06.238Z,88.12
2023-01-19T16:43:06.256Z,88.23
2023-01-19T16:44:06.217Z,88.64
2023-01-19T16:45:06.202Z,88.23
2023-01-19T16:46:06.314Z,88.75
2023-01-19T16:47:06.189Z,88.33
2023-01-19T16:48:06.200Z,88.43
2023-01-19T16:49:06.160Z,88.75
2023-01-19T16:50:06.160Z,88.85
2023-01-19T16:51:06.146Z,88.71
2023-01-19T16:52:06.140Z,88.64
2023-01-19T16:53:06.125Z,88.96
2023-01-19T16:54:06.111Z,89.17
2023-01-19T16:55:06.106Z,89.89
2023-01-19T16:56:06.130Z,89.94
2023-01-19T16:57:06.096Z,89.48
2023-01-19T16:58:06.075Z,89.62
2023-01-19T16:59:06.067Z,89.52
2023-01-19T17:00:06.067Z,89.20
2023-01-19T17:01:06.165Z,90.14
2023-01-19T17:02:06.259Z,90.04
2023-01-19T17:03:06.084Z,90.04
2023-01-19T17:04:06.009Z,89.62
2023-01-19T17:05:05.999Z,90.25
2023-01-19T17:06:05.995Z,90.04
2023-01-19T17:07:05.988Z,90.35
2023-01-19T17:08:05.967Z,90.56
2023-01-19T17:09:05.977Z,90.35
2023-01-19T17:10:05.949Z,90.45
2023-01-19T17:11:05.950Z,90.45
2023-01-19T17:12:05.921Z,90.45
2023-01-19T17:13:05.924Z,90.77
2023-01-19T17:14:05.915Z,90.66
2023-01-19T17:15:05.913Z,91.02
2023-01-19T17:16:05.883Z,91.08
2023-01-19T17:17:05.877Z,91.08
2023-01-19T17:18:05.883Z,91.39
2023-01-19T17:19:05.844Z,91.08
2023-01-19T17:20:05.858Z,90.77
2023-01-19T17:21:05.843Z,90.66
2023-01-19T17:22:05.821Z,90.35
2023-01-19T17:23:05.805Z,90.66
2023-01-19T17:24:05.799Z,90.66
2023-01-19T17:25:05.804Z,90.66
2023-01-19T17:26:05.772Z,90.25
2023-01-19T17:27:05.762Z,90.52
2023-01-19T17:28:05.752Z,90.35
2023-01-19T17:29:05.762Z,90.56
2023-01-19T17:30:05.752Z,90.20
2023-01-19T17:31:05.827Z,90.20
2023-01-19T17:32:05.719Z,90.14
2023-01-19T17:33:05.703Z,90.31
2023-01-19T17:34:05.717Z,90.45
2023-01-19T17:35:05.714Z,89.79
2023-01-19T17:36:05.676Z,89.83
2023-01-19T17:37:05.675Z,89.79
2023-01-19T17:38:05.659Z,90.10
2023-01-19T17:39:05.641Z,90.20
2023-01-19T17:40:05.675Z,89.48
2023-01-19T17:41:05.627Z,89.27
2023-01-19T17:42:05.607Z,90.10
2023-01-19T17:43:05.615Z,90.31
2023-01-19T17:44:05.621Z,89.79
2023-01-19T17:45:05.597Z,89.89
2023-01-19T17:46:05.644Z,90.41
2023-01-19T17:47:05.556Z,90.00
2023-01-19T17:48:05.556Z,90.41
2023-01-19T17:49:05.534Z,90.20
2023-01-19T17:50:05.555Z,90.00
2023-01-19T17:51:05.529Z,89.89
2023-01-19T17:52:05.521Z,90.10
2023-01-19T17:53:05.499Z,89.79
2023-01-19T17:54:05.509Z,89.89
2023-01-19T17:55:05.487Z,89.79
2023-01-19T17:56:05.466Z,90.20
2023-01-19T17:57:05.458Z,90.00
2023-01-19T17:58:05.474Z,90.10
2023-01-19T17:59:05.428Z,89.58
2023-01-19T18:00:05.423Z,89.48
2023-01-19T18:01:05.486Z,89.79
2023-01-19T18:02:05.490Z,89.37
2023-01-19T18:03:05.398Z,89.89
2023-01-19T18:04:05.392Z,89.89
2023-01-19T18:05:05.370Z,90.00
2023-01-19T18:06:05.409Z,89.58
2023-01-19T18:07:05.348Z,89.89
2023-01-19T18:08:05.351Z,90.10
2023-01-19T18:09:05.341Z,89.95
2023-01-19T18:10:05.318Z,89.37
2023-01-19T18:11:05.311Z,89.79
2023-01-19T18:12:12.821Z,89.79
2023-01-19T18:13:05.300Z,90.00
2023-01-19T18:14:05.279Z,90.00
2023-01-19T18:15:05.268Z,90.20
2023-01-19T18:16:05.327Z,89.58
2023-01-19T18:17:05.249Z,90.31
2023-01-19T18:18:05.235Z,90.41
2023-01-19T18:19:05.258Z,90.31
2023-01-19T18:20:05.244Z,89.58
2023-01-19T18:21:05.203Z,89.64
2023-01-19T18:22:05.210Z,89.85
2023-01-19T18:23:05.197Z,89.75
2023-01-19T18:24:05.184Z,89.33
2023-01-19T18:25:05.174Z,90.16
2023-01-19T18:26:05.173Z,90.06
2023-01-19T18:27:05.144Z,89.95
2023-01-19T18:28:05.139Z,90.26
2023-01-19T18:29:05.139Z,89.95
2023-01-19T18:30:05.131Z,90.16
2023-01-19T18:31:05.250Z,90.26
2023-01-19T18:32:05.114Z,90.16
2023-01-19T18:33:05.071Z,90.26
2023-01-19T18:34:05.072Z,90.26
2023-01-19T18:35:05.064Z,90.37
2023-01-19T18:36:05.038Z,90.58
2023-01-19T18:37:05.047Z,90.58
2023-01-19T18:38:05.063Z,91.00
2023-01-19T18:39:05.020Z,91.41
2023-01-19T18:40:05.007Z,91.00
2023-01-19T18:41:05.001Z,91.20
2023-01-19T18:42:04.981Z,91.31
2023-01-19T18:43:04.974Z,91.41
2023-01-19T18:44:04.976Z,91.20
2023-01-19T18:45:04.949Z,91.20
2023-01-19T18:46:05.012Z,91.10
2023-01-19T18:47:04.953Z,91.20
2023-01-19T18:48:04.926Z,91.20
2023-01-19T18:49:04.910Z,91.20
2023-01-19T18:50:04.924Z,91.20
2023-01-19T18:51:04.905Z,91.31
2023-01-19T18:52:04.877Z,91.10
2023-01-19T18:53:04.877Z,90.79
2023-01-19T18:54:04.908Z,91.72
2023-01-19T18:55:04.857Z,91.72
2023-01-19T18:56:04.841Z,91.31
2023-01-19T18:57:04.858Z,91.62
2023-01-19T18:58:04.812Z,91.62
2023-01-19T18:59:04.810Z,91.72
2023-01-19T19:00:04.803Z,91.72
2023-01-19T19:01:04.838Z,91.83
2023-01-19T19:02:04.917Z,91.62
2023-01-19T19:03:04.776Z,91.62
2023-01-19T19:04:04.756Z,91.83
2023-01-19T19:05:04.774Z,91.62
2023-01-19T19:06:04.772Z,91.83
2023-01-19T19:07:04.720Z,91.93
2023-01-19T19:08:04.721Z,92.03
2023-01-19T19:09:04.707Z,91.93
2023-01-19T19:10:04.714Z,91.72
2023-01-19T19:11:04.706Z,91.83
2023-01-19T19:12:04.709Z,91.93
2023-01-19T19:13:04.662Z,91.83
2023-01-19T19:14:04.644Z,92.03
2023-01-19T19:15:04.684Z,92.45
2023-01-19T19:16:04.688Z,92.14
2023-01-19T19:17:04.610Z,92.24
2023-01-19T19:18:04.628Z,92.14
2023-01-19T19:19:04.616Z,92.24
2023-01-19T19:20:04.597Z,92.24
2023-01-19T19:21:04.588Z,92.55
2023-01-19T19:22:04.577Z,92.66
2023-01-19T19:23:04.551Z,92.55
2023-01-19T19:24:04.556Z,92.55
2023-01-19T19:25:04.552Z,93.07
2023-01-19T19:26:04.536Z,93.18
2023-01-19T19:27:04.541Z,93.07
2023-01-19T19:28:04.519Z,93.18
2023-01-19T19:29:04.493Z,93.29
2023-01-19T19:30:04.480Z,93.29
2023-01-19T19:31:04.615Z,93.39
2023-01-19T19:32:04.464Z,93.49
2023-01-19T19:33:04.470Z,93.18
2023-01-19T19:34:04.444Z,93.60
2023-01-19T19:35:04.430Z,93.39
2023-01-19T19:36:04.430Z,93.23
2023-01-19T19:37:04.405Z,93.39
2023-01-19T19:38:04.421Z,93.39
2023-01-19T19:39:04.393Z,93.64
2023-01-19T19:40:04.381Z,93.80
2023-01-19T19:41:04.367Z,94.12
2023-01-19T19:42:04.386Z,94.22
2023-01-19T19:43:04.341Z,94.12
2023-01-19T19:44:04.370Z,93.80
2023-01-19T19:45:04.323Z,94.22
2023-01-19T19:46:04.323Z,94.32
2023-01-19T19:47:04.310Z,93.70
2023-01-19T19:48:04.296Z,93.91
2023-01-19T19:49:04.304Z,93.91
2023-01-19T19:50:04.265Z,93.91
2023-01-19T19:51:17.098Z,93.60
2023-01-19T19:52:05.250Z,93.80
2023-01-19T19:53:04.263Z,94.22
2023-01-19T19:54:04.247Z,93.80
2023-01-19T19:55:04.270Z,94.12
2023-01-19T19:56:04.217Z,94.01
2023-01-19T19:57:04.197Z,93.91
2023-01-19T19:58:04.218Z,94.16
2023-01-19T19:59:04.170Z,94.12
2023-01-19T20:00:04.171Z,93.85
2023-01-19T20:01:04.291Z,94.37
2023-01-19T20:02:04.167Z,94.64
2023-01-19T20:03:04.133Z,94.64
2023-01-19T20:04:04.135Z,94.74
2023-01-19T20:05:04.175Z,94.99
2023-01-19T20:06:04.142Z,94.99
2023-01-19T20:07:04.095Z,94.99
2023-01-19T20:08:04.094Z,94.89
2023-01-19T20:09:04.089Z,94.89
2023-01-19T20:10:04.067Z,95.09
2023-01-19T20:11:04.077Z,95.09
2023-01-19T20:12:04.058Z,95.30
2023-01-19T20:13:04.057Z,95.83
2023-01-19T20:14:04.043Z,96.66
2023-01-19T20:15:04.009Z,96.45
2023-01-19T20:16:04.112Z,96.14
2023-01-19T20:17:04.010Z,96.45
2023-01-19T20:18:03.974Z,96.49
2023-01-19T20:19:03.972Z,97.17
2023-01-19T20:20:03.969Z,97.33
2023-01-19T20:21:03.972Z,97.38
2023-01-19T20:22:03.964Z,97.17
2023-01-19T20:23:03.931Z,97.17
2023-01-19T20:24:03.922Z,96.55
2023-01-19T20:25:03.913Z,97.59
2023-01-19T20:26:03.903Z,96.76
2023-01-19T20:27:03.894Z,97.17
2023-01-19T20:28:03.900Z,97.07
2023-01-19T20:29:03.859Z,97.07
2023-01-19T20:30:03.867Z,97.49
2023-01-19T20:31:03.899Z,97.38
2023-01-19T20:32:03.854Z,97.07
2023-01-19T20:33:03.838Z,97.49
2023-01-19T20:34:03.806Z,97.59
2023-01-19T20:35:03.823Z,97.28
2023-01-19T20:36:03.787Z,97.38
2023-01-19T20:37:03.786Z,97.44
2023-01-19T20:38:03.778Z,97.59
2023-01-19T20:39:03.770Z,97.38
2023-01-19T20:40:03.746Z,97.59
2023-01-19T20:41:03.742Z,97.70
2023-01-19T20:42:03.721Z,97.70
2023-01-19T20:43:03.742Z,97.34
2023-01-19T20:44:03.721Z,97.28
2023-01-19T20:45:03.702Z,97.70
2023-01-19T20:46:03.802Z,97.44
2023-01-19T20:47:06.479Z,97.24
2023-01-19T20:48:03.666Z,97.70
2023-01-19T20:49:03.669Z,98.11
2023-01-19T20:50:03.642Z,97.86
2023-01-19T20:51:03.643Z,98.59
2023-01-19T20:52:03.621Z,98.53
2023-01-19T20:53:03.619Z,98.22
2023-01-19T20:54:03.603Z,98.32
2023-01-19T20:55:03.593Z,98.17
2023-01-19T20:56:05.951Z,98.48
2023-01-19T20:57:03.601Z,98.22
2023-01-19T20:58:03.574Z,99.01
2023-01-19T20:59:03.544Z,98.69
2023-01-19T21:00:03.542Z,98.84
2023-01-19T21:01:03.605Z,98.38
2023-01-19T21:02:03.710Z,98.32
2023-01-19T21:03:03.522Z,98.27
2023-01-19T21:04:03.529Z,98.69
2023-01-19T21:05:03.481Z,98.74
2023-01-19T21:06:03.475Z,98.63
2023-01-19T21:07:03.468Z,98.94
2023-01-19T21:08:03.476Z,98.63
2023-01-19T21:09:03.458Z,98.84
2023-01-19T21:10:03.433Z,98.84
2023-01-19T21:11:03.423Z,98.48
2023-01-19T21:12:03.421Z,98.74
2023-01-19T21:13:03.435Z,98.59
2023-01-19T21:14:03.382Z,98.84
2023-01-19T21:15:03.395Z,98.22
2023-01-19T21:16:03.443Z,98.94
2023-01-19T21:17:03.380Z,98.84
2023-01-19T21:18:03.384Z,99.26
2023-01-19T21:19:03.366Z,99.46
2023-01-19T21:20:03.331Z,99.99
2023-01-19T21:21:03.312Z,99.88
2023-01-19T21:22:03.303Z,99.99
2023-01-19T21:23:03.298Z,99.52
2023-01-19T21:24:03.311Z,99.36
2023-01-19T21:25:03.266Z,99.57
2023-01-19T21:26:03.273Z,98.84
2023-01-19T21:27:03.271Z,99.36
2023-01-19T21:28:03.249Z,99.99
2023-01-19T21:29:03.260Z,99.99
2023-01-19T21:30:03.232Z,99.99
2023-01-19T21:31:03.209Z,99.36
2023-01-19T21:32:03.286Z,99.77
2023-01-19T21:33:03.190Z,99.99
2023-01-19T21:34:03.202Z,99.99
2023-01-19T21:35:03.172Z,99.77
2023-01-19T21:36:03.158Z,99.99
2023-01-19T21:37:03.140Z,99.99
2023-01-19T21:38:03.139Z,99.77
2023-01-19T21:39:03.148Z,99.99
2023-01-19T21:40:03.144Z,99.99
2023-01-19T21:41:03.112Z,99.99
2023-01-19T21:42:03.099Z,99.99
2023-01-19T21:43:03.077Z,99.99
2023-01-19T21:44:03.065Z,99.99
2023-01-19T21:45:03.055Z,99.99
2023-01-19T21:46:03.074Z,99.99
2023-01-19T21:47:03.045Z,99.99
2023-01-19T21:48:03.045Z,99.99
2023-01-19T21:49:03.038Z,99.99
2023-01-19T21:50:03.033Z,99.99
2023-01-19T21:51:03.017Z,99.99
2023-01-19T21:52:02.994Z,99.99
2023-01-19T21:53:02.982Z,99.99
2023-01-19T21:54:02.974Z,99.99
2023-01-19T21:55:02.958Z,99.99
2023-01-19T21:56:02.966Z,99.99
2023-01-19T21:57:02.996Z,99.99
2023-01-19T21:58:02.930Z,99.99
2023-01-19T21:59:02.916Z,99.99
2023-01-19T22:00:02.901Z,99.99
2023-01-19T22:01:03.029Z,99.99
2023-01-19T22:02:03.169Z,99.99
2023-01-19T22:03:04.486Z,99.99
2023-01-19T22:04:02.864Z,99.99
2023-01-19T22:05:02.864Z,99.99
2023-01-19T22:06:02.863Z,99.99
2023-01-19T22:07:02.840Z,99.99
2023-01-19T22:08:02.861Z,99.99
2023-01-19T22:09:02.821Z,99.99
2023-01-19T22:10:02.803Z,99.99
2023-01-19T22:11:05.036Z,99.99
2023-01-19T22:12:02.779Z,99.99
2023-01-19T22:13:02.769Z,99.99
2023-01-19T22:14:02.772Z,99.99
2023-01-19T22:15:02.746Z,99.99
2023-01-19T22:16:02.750Z,99.99
2023-01-19T22:17:02.721Z,99.99
2023-01-19T22:18:02.725Z,99.99
2023-01-19T22:19:02.714Z,99.99
2023-01-19T22:20:02.713Z,99.99
2023-01-19T22:21:02.745Z,99.99
2023-01-19T22:22:02.701Z,99.99
2023-01-19T22:23:02.657Z,99.99
2023-01-19T22:24:02.663Z,99.99
2023-01-19T22:25:04.003Z,99.99
2023-01-19T22:26:02.637Z,99.99
2023-01-19T22:27:02.643Z,99.99
2023-01-19T22:28:02.628Z,99.99
2023-01-19T22:29:02.611Z,99.99
2023-01-19T22:30:02.604Z,99.99
2023-01-19T22:31:02.742Z,99.99
2023-01-19T22:32:02.571Z,99.99
2023-01-19T22:33:02.565Z,99.99
2023-01-19T22:34:02.559Z,99.99
2023-01-19T22:35:02.541Z,99.99
2023-01-19T22:36:02.727Z,99.99
2023-01-19T22:37:02.512Z,99.99
2023-01-19T22:38:02.548Z,99.99
2023-01-19T22:39:02.500Z,99.99
2023-01-19T22:40:02.500Z,99.99
2023-01-19T22:41:02.487Z,99.99
2023-01-19T22:42:02.464Z,99.99
2023-01-19T22:43:02.466Z,99.99
2023-01-19T22:44:02.443Z,99.99
2023-01-19T22:45:02.434Z,99.99
2023-01-19T22:46:03.678Z,99.99
2023-01-19T22:47:02.420Z,99.99
2023-01-19T22:48:02.407Z,99.99
2023-01-19T22:49:02.414Z,99.99
2023-01-19T22:50:02.397Z,99.99
2023-01-19T22:51:02.389Z,99.99
2023-01-19T22:52:02.370Z,99.99
2023-01-19T22:53:02.362Z,99.99
2023-01-19T22:54:02.355Z,99.99
2023-01-19T22:55:02.326Z,99.99
2023-01-19T22:56:02.333Z,99.99
2023-01-19T22:57:02.320Z,99.99
2023-01-19T22:58:02.304Z,99.99
2023-01-19T22:59:02.299Z,99.99
2023-01-19T23:00:02.301Z,99.99
2023-01-19T23:01:02.351Z,99.99
2023-01-19T23:02:02.305Z,99.99
2023-01-19T23:03:02.249Z,99.99
2023-01-19T23:04:02.248Z,99.99
2023-01-19T23:05:02.229Z,99.99
2023-01-19T23:06:02.206Z,99.99
2023-01-19T23:07:02.219Z,99.99
2023-01-19T23:08:02.207Z,99.99
2023-01-19T23:09:02.184Z,99.99
2023-01-19T23:10:02.204Z,99.99
2023-01-19T23:11:02.165Z,99.99
2023-01-19T23:12:02.152Z,99.99
2023-01-19T23:13:02.169Z,99.99
2023-01-19T23:14:02.121Z,99.99
2023-01-19T23:15:02.123Z,99.99
2023-01-19T23:16:02.218Z,99.99
2023-01-19T23:17:02.104Z,99.99
2023-01-19T23:18:02.113Z,99.99
2023-01-19T23:19:02.087Z,99.99
2023-01-19T23:20:02.065Z,99.99
2023-01-19T23:21:02.047Z,99.99
2023-01-19T23:22:02.057Z,99.99
2023-01-19T23:23:02.038Z,99.99
2023-01-19T23:24:02.034Z,99.99
2023-01-19T23:25:02.020Z,99.99
2023-01-19T23:26:02.022Z,99.99
2023-01-19T23:27:02.000Z,99.99
2023-01-19T23:28:01.969Z,99.99
2023-01-19T23:29:01.988Z,99.99
2023-01-19T23:30:01.952Z,99.99
2023-01-19T23:31:02.080Z,99.99
2023-01-19T23:32:01.939Z,99.99
2023-01-19T23:33:01.935Z,99.99
2023-01-19T23:34:01.963Z,99.99
2023-01-19T23:35:01.909Z,99.99
2023-01-19T23:36:01.890Z,99.99
2023-01-19T23:37:01.887Z,99.99
2023-01-19T23:38:01.883Z,99.99
2023-01-19T23:39:01.865Z,99.99
2023-01-19T23:40:01.859Z,99.99
2023-01-19T23:41:01.844Z,99.99
2023-01-19T23:42:01.852Z,99.99
2023-01-19T23:43:01.863Z,99.99
2023-01-19T23:44:01.927Z,99.99
2023-01-19T23:45:03.812Z,99.99
2023-01-19T23:46:01.817Z,99.99
2023-01-19T23:47:01.768Z,99.99
2023-01-19T23:48:01.773Z,99.99
2023-01-19T23:49:01.751Z,99.99
2023-01-19T23:50:01.841Z,99.99
2023-01-19T23:51:01.740Z,99.73
2023-01-19T23:52:01.741Z,99.99
2023-01-19T23:53:01.705Z,99.94
2023-01-19T23:54:01.716Z,99.99
2023-01-19T23:55:01.704Z,99.99
2023-01-19T23:56:01.696Z,99.99
2023-01-19T23:57:01.670Z,99.99
2023-01-19T23:58:01.679Z,99.99
2023-01-19T23:59:01.647Z,99.79
